createdAt,value
2023-02-24T00:01:21.105Z,101408.94
2023-02-24T00:06:39.015Z,101449.16
2023-02-24T00:11:57.577Z,101438.47
2023-02-24T00:17:03.530Z,101435.28
2023-02-24T00:22:09.755Z,101443.97
2023-02-24T00:27:15.217Z,101440.09
2023-02-24T00:32:20.739Z,101447.47
2023-02-24T00:37:26.403Z,101449.19
2023-02-24T00:42:31.717Z,101450.69
2023-02-24T00:47:40.639Z,101455.34
2023-02-24T00:52:45.989Z,101459.84
2023-02-24T00:57:51.439Z,101454.44
2023-02-24T01:03:03.129Z,101450.97
2023-02-24T01:08:08.695Z,101476.00
2023-02-24T01:13:14.359Z,101489.44
2023-02-24T01:18:19.682Z,101489.47
2023-02-24T01:23:25.240Z,101513.47
2023-02-24T01:28:30.814Z,101500.88
2023-02-24T01:33:39.818Z,101505.94
2023-02-24T01:38:46.298Z,101515.03
2023-02-24T01:44:33.109Z,101516.16
2023-02-24T01:49:47.511Z,101528.09
2023-02-24T01:55:10.993Z,101527.50
2023-02-24T02:00:36.788Z,101533.56
2023-02-24T02:05:43.731Z,101553.50
2023-02-24T02:10:49.431Z,101547.16
2023-02-24T02:16:18.738Z,101549.03
2023-02-24T02:22:22.332Z,101546.50
2023-02-24T02:28:08.187Z,101549.97
2023-02-24T02:33:41.545Z,101547.38
2023-02-24T02:39:12.976Z,101559.91
2023-02-24T02:44:27.135Z,101569.13
2023-02-24T02:49:56.197Z,101562.03
2023-02-24T02:55:14.688Z,101562.16
2023-02-24T03:00:24.606Z,101575.75
2023-02-24T03:05:38.290Z,101565.22
2023-02-24T03:10:46.020Z,101575.97
2023-02-24T03:15:54.248Z,101576.81
2023-02-24T03:21:41.966Z,101564.97
2023-02-24T03:27:23.699Z,101549.03
2023-02-24T03:32:58.076Z,101556.31
2023-02-24T03:38:14.786Z,101553.53
2023-02-24T03:43:33.251Z,101561.56
2023-02-24T03:48:52.388Z,101566.63
2023-02-24T03:54:16.277Z,101574.81
2023-02-24T04:00:22.460Z,101575.28
2023-02-24T04:05:53.439Z,101590.16
2023-02-24T04:11:25.052Z,101595.06
2023-02-24T04:17:08.506Z,101598.72
2023-02-24T04:22:16.342Z,101585.91
2023-02-24T04:27:23.379Z,101587.28
2023-02-24T04:32:32.188Z,101597.47
2023-02-24T04:37:40.726Z,101617.44
2023-02-24T04:42:49.627Z,101627.03
2023-02-24T04:48:14.966Z,101638.06
2023-02-24T04:53:19.939Z,101627.84
2023-02-24T04:58:30.253Z,101640.97
2023-02-24T05:03:36.665Z,101635.91
2023-02-24T05:08:42.419Z,101658.50
2023-02-24T05:13:47.781Z,101648.72
2023-02-24T05:19:14.461Z,101666.19
2023-02-24T05:24:19.888Z,101650.03
2023-02-24T05:29:29.907Z,101650.97
2023-02-24T05:34:35.361Z,101652.97
2023-02-24T05:39:41.573Z,101658.97
2023-02-24T05:44:47.012Z,101656.16
2023-02-24T05:49:54.807Z,101640.22
2023-02-24T05:55:01.435Z,101645.13
2023-02-24T06:00:19.578Z,101648.19
2023-02-24T06:05:28.057Z,101647.25
2023-02-24T06:10:36.747Z,101650.25
2023-02-24T06:15:49.409Z,101651.50
2023-02-24T06:20:54.464Z,101663.88
2023-02-24T06:26:05.695Z,101653.69
2023-02-24T06:31:11.798Z,101643.09
2023-02-24T06:36:17.233Z,101646.66
2023-02-24T06:41:23.455Z,101650.03
2023-02-24T06:46:29.445Z,101647.94
2023-02-24T06:51:34.813Z,101646.81
2023-02-24T06:56:42.350Z,101652.97
2023-02-24T07:01:54.610Z,101663.72
2023-02-24T07:07:03.788Z,101669.03
2023-02-24T07:12:11.732Z,101682.31
2023-02-24T07:17:25.489Z,101671.78
2023-02-24T07:22:30.929Z,101661.56
2023-02-24T07:27:37.277Z,101668.34
2023-02-24T07:32:43.145Z,101644.94
2023-02-24T07:37:51.290Z,101662.97
2023-02-24T07:42:57.867Z,101648.75
2023-02-24T07:48:03.678Z,101653.69
2023-02-24T07:53:10.581Z,101654.97
2023-02-24T07:58:16.417Z,101655.91
2023-02-24T08:03:24.088Z,101644.63
2023-02-24T08:08:29.619Z,101640.69
2023-02-24T08:13:40.705Z,101636.88
2023-02-24T08:18:51.780Z,101639.59
2023-02-24T08:23:57.203Z,101653.94
2023-02-24T08:29:09.674Z,101616.31
2023-02-24T08:34:16.639Z,101654.97
2023-02-24T08:39:23.106Z,101647.00
2023-02-24T08:44:28.492Z,101648.44
2023-02-24T08:49:34.459Z,101657.88
2023-02-24T08:54:51.880Z,101657.31
2023-02-24T08:59:59.932Z,101645.84
2023-02-24T09:05:13.858Z,101660.00
2023-02-24T09:10:22.309Z,101663.31
2023-02-24T09:15:44.550Z,101661.28
2023-02-24T09:21:20.911Z,101659.72
2023-02-24T09:26:26.719Z,101653.59
2023-02-24T09:31:44.098Z,101661.22
2023-02-24T09:37:04.334Z,101661.88
2023-02-24T09:42:31.938Z,101659.34
2023-02-24T09:47:57.639Z,101665.69
2023-02-24T09:53:16.948Z,101671.25
2023-02-24T09:58:43.993Z,101661.28
2023-02-24T10:04:19.824Z,101660.25
2023-02-24T10:09:37.317Z,101642.72
2023-02-24T10:14:53.825Z,101639.94
2023-02-24T10:20:15.876Z,101632.75
2023-02-24T10:25:56.863Z,101649.31
2023-02-24T10:31:11.203Z,101651.22
2023-02-24T10:36:33.513Z,101643.81
2023-02-24T10:41:50.720Z,101658.47
2023-02-24T10:47:18.432Z,101656.47
2023-02-24T10:52:38.084Z,101658.97
2023-02-24T10:57:59.579Z,101629.81
2023-02-24T11:03:27.968Z,101639.19
2023-02-24T11:08:49.510Z,101643.44
2023-02-24T11:14:15.750Z,101636.94
2023-02-24T11:19:21.848Z,101622.38
2023-02-24T11:24:29.088Z,101624.19
2023-02-24T11:30:03.080Z,101627.25
2023-02-24T11:35:21.024Z,101626.91
2023-02-24T11:40:30.089Z,101621.06
2023-02-24T11:46:03.774Z,101615.81
2023-02-24T11:51:20.861Z,101608.66
2023-02-24T11:56:30.990Z,101625.50
2023-02-24T12:01:58.109Z,101615.16
2023-02-24T12:07:16.875Z,101619.00
2023-02-24T12:12:31.240Z,101596.50
2023-02-24T12:18:00.746Z,101601.84
2023-02-24T12:23:24.056Z,101575.13
2023-02-24T12:28:54.801Z,101581.09
2023-02-24T12:34:15.004Z,101584.13
2023-02-24T12:39:30.185Z,101568.69
2023-02-24T12:44:54.364Z,101573.47
2023-02-24T12:50:49.702Z,101572.69
2023-02-24T12:56:31.890Z,101575.41
2023-02-24T13:02:13.960Z,101562.84
2023-02-24T13:07:51.521Z,101567.16
2023-02-24T13:13:11.305Z,101545.47
2023-02-24T13:18:30.478Z,101561.22
2023-02-24T13:23:37.580Z,101546.84
2023-02-24T13:28:43.980Z,101550.44
2023-02-24T13:33:49.348Z,101568.13
2023-02-24T13:39:39.473Z,101572.50
2023-02-24T13:45:05.456Z,101572.28
2023-02-24T13:50:27.354Z,101568.19
2023-02-24T13:55:50.897Z,101558.47
2023-02-24T14:01:02.898Z,101561.06
2023-02-24T14:06:24.763Z,101565.53
2023-02-24T14:11:38.184Z,101562.28
2023-02-24T14:16:48.692Z,101556.31
2023-02-24T14:21:57.190Z,101565.25
2023-02-24T14:27:03.010Z,101547.09
2023-02-24T14:32:21.946Z,101545.41
2023-02-24T14:37:30.570Z,101552.38
2023-02-24T14:42:36.878Z,101563.94
2023-02-24T14:47:43.712Z,101560.19
2023-02-24T14:52:49.093Z,101557.19
2023-02-24T14:58:44.019Z,101564.22
2023-02-24T15:03:56.217Z,101565.31
2023-02-24T15:09:06.659Z,101558.03
2023-02-24T15:14:51.377Z,101564.28
2023-02-24T15:19:56.888Z,101555.22
2023-02-24T15:25:24.094Z,101561.78
2023-02-24T15:30:39.249Z,101560.41
2023-02-24T15:35:57.366Z,101546.16
2023-02-24T15:41:04.639Z,101552.44
2023-02-24T15:46:34.858Z,101545.13
2023-02-24T15:51:47.806Z,101557.25
2023-02-24T15:56:53.012Z,101549.84
2023-02-24T16:01:58.531Z,101534.22
2023-02-24T16:07:04.774Z,101537.63
2023-02-24T16:12:29.373Z,101541.81
2023-02-24T16:18:04.411Z,101537.59
2023-02-24T16:23:11.189Z,101533.25
2023-02-24T16:28:18.798Z,101526.88
2023-02-24T16:33:24.373Z,101532.06
2023-02-24T16:38:28.604Z,101527.84
2023-02-24T16:43:36.013Z,101517.84
2023-02-24T16:48:45.515Z,101509.94
2023-02-24T16:53:49.639Z,101514.16
2023-02-24T16:58:53.834Z,101498.31
2023-02-24T17:03:57.962Z,101484.78
2023-02-24T17:09:03.925Z,101500.78
2023-02-24T17:14:08.171Z,101500.22
2023-02-24T17:19:12.361Z,101486.25
2023-02-24T17:24:18.527Z,101466.72
2023-02-24T17:29:22.679Z,101478.56
2023-02-24T17:34:26.747Z,101459.34
2023-02-24T17:39:30.782Z,101461.16
2023-02-24T17:44:34.913Z,101455.72
2023-02-24T17:49:40.214Z,101468.09
2023-02-24T17:54:44.418Z,101463.09
2023-02-24T17:59:48.630Z,101449.06
2023-02-24T18:04:52.775Z,101461.97
2023-02-24T18:09:57.002Z,101460.25
2023-02-24T18:15:08.610Z,101453.00
2023-02-24T18:20:14.718Z,101448.47
2023-02-24T18:25:19.478Z,101427.34
2023-02-24T18:30:23.540Z,101449.59
2023-02-24T18:35:27.886Z,101440.63
2023-02-24T18:40:31.962Z,101406.28
2023-02-24T18:45:36.059Z,101445.31
2023-02-24T18:50:40.656Z,101443.59
2023-02-24T18:55:44.713Z,101424.22
2023-02-24T19:00:48.814Z,101426.78
2023-02-24T19:05:52.995Z,101431.28
2023-02-24T19:10:57.137Z,101426.72
2023-02-24T19:16:01.864Z,101433.03
2023-02-24T19:21:10.482Z,101431.94
2023-02-24T19:26:22.841Z,101420.44
2023-02-24T19:31:30.461Z,101422.50
2023-02-24T19:36:36.610Z,101421.19
2023-02-24T19:41:41.775Z,101420.13
2023-02-24T19:46:46.195Z,101397.28
2023-02-24T19:51:54.176Z,101405.97
2023-02-24T19:56:59.321Z,101407.78
2023-02-24T20:02:04.023Z,101403.94
2023-02-24T20:07:09.816Z,101403.63
2023-02-24T20:12:14.358Z,101407.66
2023-02-24T20:17:18.435Z,101406.44
2023-02-24T20:22:22.753Z,101415.47
2023-02-24T20:27:26.951Z,101413.47
2023-02-24T20:32:33.523Z,101413.97
2023-02-24T20:37:37.804Z,101404.34
2023-02-24T20:42:42.012Z,101375.63
2023-02-24T20:47:46.812Z,101409.56
2023-02-24T20:52:50.861Z,101394.00
2023-02-24T20:57:56.104Z,101407.16
2023-02-24T21:03:02.306Z,101421.88
2023-02-24T21:08:07.044Z,101406.56
2023-02-24T21:13:12.474Z,101416.78
2023-02-24T21:18:16.530Z,101406.22
2023-02-24T21:23:22.427Z,101404.31
2023-02-24T21:28:27.637Z,101407.63
2023-02-24T21:33:31.810Z,101405.16
2023-02-24T21:38:38.246Z,101397.31
2023-02-24T21:43:43.323Z,101402.44
2023-02-24T21:48:47.412Z,101400.44
2023-02-24T21:53:55.531Z,101410.53
2023-02-24T21:59:02.571Z,101397.84
2023-02-24T22:04:11.586Z,101394.91
2023-02-24T22:09:20.590Z,101385.34
2023-02-24T22:14:26.355Z,101365.03
2023-02-24T22:19:31.757Z,101374.00
2023-02-24T22:24:37.183Z,101381.97
2023-02-24T22:29:43.999Z,101370.59
2023-02-24T22:34:49.696Z,101367.91
2023-02-24T22:39:55.014Z,101376.38
2023-02-24T22:45:00.830Z,101364.53
2023-02-24T22:50:06.607Z,101369.84
2023-02-24T22:55:12.241Z,101364.50
2023-02-24T23:00:20.660Z,101368.19
2023-02-24T23:05:25.915Z,101369.84
2023-02-24T23:10:31.256Z,101353.56
2023-02-24T23:15:39.860Z,101350.22
2023-02-24T23:20:48.030Z,101343.91
2023-02-24T23:25:53.287Z,101334.06
2023-02-24T23:30:58.578Z,101344.06
2023-02-24T23:36:07.658Z,101339.66
2023-02-24T23:41:13.819Z,101342.31
2023-02-24T23:46:19.287Z,101334.22
2023-02-24T23:51:25.886Z,101334.88
2023-02-24T23:56:32.240Z,101320.75
